createdAt,value
2022-12-11T00:01:33.984Z,12.25
2022-12-11T00:04:00.941Z,14.10
2022-12-11T00:06:27.926Z,12.30
2022-12-11T00:08:56.045Z,14.18
2022-12-11T00:11:23.253Z,14.50
2022-12-11T00:13:50.241Z,15.75
2022-12-11T00:16:17.228Z,15.68
2022-12-11T00:18:44.179Z,14.10
2022-12-11T00:21:13.109Z,14.68
2022-12-11T00:23:40.260Z,13.15
2022-12-11T00:26:13.521Z,15.13
2022-12-11T00:28:40.634Z,15.23
2022-12-11T00:31:08.585Z,14.57
2022-12-11T00:33:35.531Z,14.57
2022-12-11T00:36:02.490Z,13.68
2022-12-11T00:38:29.403Z,15.00
2022-12-11T00:40:59.849Z,15.65
2022-12-11T00:43:26.807Z,14.05
2022-12-11T00:45:53.783Z,14.77
2022-12-11T00:48:20.701Z,15.45
2022-12-11T00:50:47.802Z,14.25
2022-12-11T00:53:14.888Z,13.63
2022-12-11T00:55:42.346Z,13.77
2022-12-11T00:58:09.578Z,13.65
2022-12-11T01:00:36.608Z,13.48
2022-12-11T01:03:03.717Z,14.32
2022-12-11T01:05:30.869Z,14.73
2022-12-11T01:07:57.900Z,14.40
2022-12-11T01:10:25.006Z,13.93
2022-12-11T01:12:58.436Z,13.75
2022-12-11T01:15:27.764Z,13.68
2022-12-11T01:17:54.729Z,13.35
2022-12-11T01:20:22.052Z,14.80
2022-12-11T01:22:48.974Z,15.23
2022-12-11T01:25:16.021Z,14.02
2022-12-11T01:27:42.915Z,14.10
2022-12-11T01:30:10.351Z,15.10
2022-12-11T01:32:37.273Z,14.27
2022-12-11T01:35:05.323Z,12.65
2022-12-11T01:37:32.227Z,13.30
2022-12-11T01:40:00.892Z,14.73
2022-12-11T01:42:29.535Z,11.68
2022-12-11T01:45:15.328Z,11.52
2022-12-11T01:47:42.285Z,11.23
2022-12-11T01:50:09.915Z,10.98
2022-12-11T01:52:37.037Z,10.90
2022-12-11T01:55:04.301Z,10.40
2022-12-11T01:57:31.234Z,9.93
2022-12-11T01:59:58.208Z,9.82
2022-12-11T02:02:28.028Z,9.95
2022-12-11T02:04:54.980Z,9.80
2022-12-11T02:07:21.940Z,9.00
2022-12-11T02:09:48.832Z,9.40
2022-12-11T02:12:19.038Z,9.48
2022-12-11T02:14:52.325Z,9.15
2022-12-11T02:17:19.251Z,8.23
2022-12-11T02:19:49.323Z,8.90
2022-12-11T02:22:23.100Z,9.25
2022-12-11T02:27:23.672Z,8.45
2022-12-11T02:30:15.110Z,9.57
2022-12-11T02:32:50.485Z,7.35
2022-12-11T02:35:39.645Z,8.45
2022-12-11T02:38:28.893Z,8.75
2022-12-11T02:40:56.121Z,8.88
2022-12-11T02:43:23.470Z,8.18
2022-12-11T02:45:50.546Z,8.68
2022-12-11T02:48:17.564Z,8.40
2022-12-11T02:50:46.427Z,8.43
2022-12-11T02:53:13.919Z,9.00
2022-12-11T02:55:40.924Z,9.68
2022-12-11T02:58:13.409Z,8.90
2022-12-11T03:00:40.540Z,8.75
2022-12-11T03:03:07.496Z,9.27
2022-12-11T03:05:34.395Z,9.70
2022-12-11T03:08:01.889Z,9.98
2022-12-11T03:10:28.946Z,9.35
2022-12-11T03:12:56.213Z,9.68
2022-12-11T03:15:30.397Z,8.77
2022-12-11T03:18:04.213Z,8.63
2022-12-11T03:20:34.148Z,9.32
2022-12-11T03:23:47.737Z,8.77
2022-12-11T03:26:15.551Z,7.82
2022-12-11T03:28:46.169Z,7.28
2022-12-11T03:31:15.625Z,7.30
2022-12-11T03:33:44.698Z,7.35
2022-12-11T03:36:20.041Z,7.40
2022-12-11T03:38:49.380Z,6.95
2022-12-11T03:41:17.423Z,7.03
2022-12-11T03:43:44.467Z,7.53
2022-12-11T03:46:11.691Z,7.13
2022-12-11T03:48:40.557Z,6.65
2022-12-11T03:51:07.872Z,7.68
2022-12-11T03:53:35.670Z,7.53
2022-12-11T03:56:04.301Z,7.90
2022-12-11T03:58:31.224Z,8.07
2022-12-11T04:00:58.336Z,6.70
2022-12-11T04:03:25.261Z,7.88
2022-12-11T04:05:53.727Z,7.57
2022-12-11T04:08:21.003Z,7.15
2022-12-11T04:10:48.131Z,7.70
2022-12-11T04:13:15.174Z,6.65
2022-12-11T04:15:42.256Z,7.15
2022-12-11T04:18:29.141Z,8.05
2022-12-11T04:21:14.928Z,6.60
2022-12-11T04:24:00.564Z,7.43
2022-12-11T04:26:27.550Z,7.70
2022-12-11T04:28:54.605Z,7.03
2022-12-11T04:31:23.510Z,8.80
2022-12-11T04:33:50.603Z,6.82
2022-12-11T04:36:17.747Z,7.13
2022-12-11T04:38:44.672Z,6.82
2022-12-11T04:41:14.534Z,7.57
2022-12-11T04:43:41.806Z,6.38
2022-12-11T04:46:10.724Z,6.55
2022-12-11T04:48:38.608Z,5.93
2022-12-11T04:51:05.881Z,6.60
2022-12-11T04:53:32.763Z,6.32
2022-12-11T04:55:59.755Z,5.53
2022-12-11T04:58:27.137Z,6.05
2022-12-11T05:00:54.126Z,5.53
2022-12-11T05:03:21.077Z,5.70
2022-12-11T05:05:49.485Z,6.03
2022-12-11T05:08:17.705Z,6.32
2022-12-11T05:10:49.984Z,5.63
2022-12-11T05:13:17.208Z,6.00
2022-12-11T05:15:44.137Z,6.25
2022-12-11T05:18:11.123Z,6.43
2022-12-11T05:20:38.313Z,6.95
2022-12-11T05:23:05.263Z,6.50
2022-12-11T05:25:32.258Z,6.25
2022-12-11T05:27:59.382Z,6.55
2022-12-11T05:30:26.562Z,5.35
2022-12-11T05:32:53.491Z,5.20
2022-12-11T05:35:20.380Z,6.57
2022-12-11T05:37:47.300Z,5.25
2022-12-11T05:40:14.904Z,5.50
2022-12-11T05:42:41.848Z,5.65
2022-12-11T05:45:09.369Z,5.93
2022-12-11T05:47:36.559Z,5.22
2022-12-11T05:50:03.690Z,5.85
2022-12-11T05:52:31.889Z,5.22
2022-12-11T05:54:58.860Z,6.00
2022-12-11T05:57:25.769Z,5.72
2022-12-11T05:59:52.717Z,6.05
2022-12-11T06:02:19.648Z,5.82
2022-12-11T06:04:46.690Z,6.03
2022-12-11T06:07:13.679Z,6.57
2022-12-11T06:09:40.612Z,6.18
2022-12-11T06:12:07.720Z,5.65
2022-12-11T06:14:34.642Z,5.40
2022-12-11T06:17:01.703Z,5.63
2022-12-11T06:19:33.364Z,5.63
2022-12-11T06:22:03.437Z,5.78
2022-12-11T06:24:30.576Z,6.05
2022-12-11T06:26:57.567Z,6.35
2022-12-11T06:29:24.565Z,6.75
2022-12-11T06:31:51.607Z,6.38
2022-12-11T06:34:18.667Z,7.25
2022-12-11T06:36:45.646Z,6.15
2022-12-11T06:39:12.544Z,6.82
2022-12-11T06:41:39.438Z,6.28
2022-12-11T06:44:06.432Z,6.65
2022-12-11T06:46:33.357Z,7.00
2022-12-11T06:49:00.239Z,8.77
2022-12-11T06:51:27.148Z,8.65
2022-12-11T06:53:55.340Z,9.68
2022-12-11T06:56:22.694Z,11.15
2022-12-11T06:58:49.887Z,11.82
2022-12-11T07:01:21.532Z,12.98
2022-12-11T07:03:48.729Z,12.43
2022-12-11T07:06:15.801Z,13.30
2022-12-11T07:08:43.666Z,11.70
2022-12-11T07:11:12.802Z,12.48
2022-12-11T07:13:42.053Z,12.65
2022-12-11T07:16:11.162Z,12.73
2022-12-11T07:18:43.390Z,13.77
2022-12-11T07:21:12.271Z,13.57
2022-12-11T07:23:39.443Z,15.02
2022-12-11T07:26:07.318Z,14.68
2022-12-11T07:28:34.611Z,15.35
2022-12-11T07:31:15.356Z,13.63
2022-12-11T07:33:42.531Z,12.52
2022-12-11T07:36:10.459Z,12.85
2022-12-11T07:38:37.463Z,12.07
2022-12-11T07:41:05.444Z,12.30
2022-12-11T07:43:35.631Z,14.32
2022-12-11T07:46:06.171Z,12.73
2022-12-11T07:48:35.486Z,14.43
2022-12-11T07:51:18.906Z,12.52
2022-12-11T07:53:47.162Z,13.48
2022-12-11T07:56:14.716Z,11.45
2022-12-11T07:58:41.797Z,11.45
2022-12-11T08:01:13.607Z,12.25
2022-12-11T08:03:40.633Z,11.80
2022-12-11T08:06:08.047Z,11.02
2022-12-11T08:08:35.082Z,11.98
2022-12-11T08:11:05.628Z,11.02
2022-12-11T08:13:32.847Z,12.48
2022-12-11T08:15:59.816Z,10.98
2022-12-11T08:18:26.687Z,9.13
2022-12-11T08:20:53.682Z,8.95
2022-12-11T08:23:20.630Z,9.65
2022-12-11T08:25:47.574Z,9.25
2022-12-11T08:28:14.564Z,9.55
2022-12-11T08:30:41.628Z,8.82
2022-12-11T08:33:08.749Z,7.97
2022-12-11T08:35:39.588Z,9.82
2022-12-11T08:38:06.671Z,10.20
2022-12-11T08:40:33.629Z,9.30
2022-12-11T08:43:00.548Z,7.85
2022-12-11T08:45:27.506Z,8.18
2022-12-11T08:47:54.418Z,8.35
2022-12-11T08:50:21.378Z,8.52
2022-12-11T08:52:48.351Z,9.45
2022-12-11T08:55:15.419Z,9.02
2022-12-11T08:57:42.311Z,11.00
2022-12-11T09:00:12.426Z,12.30
2022-12-11T09:02:39.699Z,10.57
2022-12-11T09:05:08.356Z,10.20
2022-12-11T09:07:36.558Z,9.98
2022-12-11T09:10:04.765Z,9.10
2022-12-11T09:12:32.743Z,10.77
2022-12-11T09:15:00.197Z,8.35
2022-12-11T09:17:27.347Z,8.90
2022-12-11T09:19:54.288Z,8.13
2022-12-11T09:22:21.258Z,8.63
2022-12-11T09:24:48.298Z,9.02
2022-12-11T09:27:15.268Z,9.43
2022-12-11T09:29:42.363Z,9.57
2022-12-11T09:32:09.561Z,8.07
2022-12-11T09:34:36.592Z,8.95
2022-12-11T09:37:03.527Z,7.78
2022-12-11T09:39:30.627Z,8.32
2022-12-11T09:42:03.264Z,8.82
2022-12-11T09:44:52.623Z,9.77
2022-12-11T09:47:41.219Z,11.60
2022-12-11T09:50:11.386Z,9.73
2022-12-11T09:52:53.497Z,10.15
2022-12-11T09:55:24.248Z,10.02
2022-12-11T09:57:57.351Z,9.45
2022-12-11T10:00:38.929Z,9.85
2022-12-11T10:03:21.292Z,9.20
2022-12-11T10:06:06.673Z,11.05
2022-12-11T10:08:45.118Z,10.55
2022-12-11T10:11:24.038Z,11.95
2022-12-11T10:14:03.180Z,10.93
2022-12-11T10:16:39.628Z,10.05
2022-12-11T10:19:09.120Z,11.13
2022-12-11T10:21:40.608Z,10.68
2022-12-11T10:24:33.783Z,10.73
2022-12-11T10:27:09.410Z,17.25
2022-12-11T10:29:36.362Z,12.82
2022-12-11T10:32:03.581Z,12.52
2022-12-11T10:34:37.945Z,13.07
2022-12-11T10:37:04.862Z,12.48
2022-12-11T10:39:32.022Z,11.65
2022-12-11T10:41:58.887Z,11.70
2022-12-11T10:44:28.356Z,13.60
2022-12-11T10:47:14.001Z,11.52
2022-12-11T10:49:54.941Z,10.88
2022-12-11T10:52:32.588Z,11.02
2022-12-11T10:55:18.007Z,10.88
2022-12-11T10:57:44.949Z,10.57
2022-12-11T11:00:32.424Z,13.05
2022-12-11T11:02:59.757Z,13.13
2022-12-11T11:05:36.634Z,11.40
2022-12-11T11:08:15.088Z,11.80
2022-12-11T11:11:01.368Z,14.25
2022-12-11T11:13:30.616Z,12.55
2022-12-11T11:16:04.873Z,13.02
2022-12-11T11:18:32.184Z,14.15
2022-12-11T11:21:01.802Z,14.07
2022-12-11T11:23:29.253Z,13.07
2022-12-11T11:26:02.968Z,13.02
2022-12-11T11:31:03.533Z,13.15
2022-12-11T11:33:31.149Z,13.73
2022-12-11T11:36:01.019Z,14.70
2022-12-11T11:38:35.656Z,17.55
2022-12-11T11:41:17.699Z,13.70
2022-12-11T11:43:49.370Z,14.02
2022-12-11T11:46:40.892Z,15.00
2022-12-11T11:49:14.419Z,16.52
2022-12-11T11:51:54.585Z,15.02
2022-12-11T11:54:38.746Z,17.63
2022-12-11T11:57:13.815Z,14.90
2022-12-11T11:59:48.953Z,15.48
2022-12-11T12:02:17.181Z,13.98
2022-12-11T12:04:45.125Z,14.45
2022-12-11T12:07:38.285Z,13.60
2022-12-11T12:10:36.562Z,13.90
2022-12-11T12:13:48.136Z,15.05
2022-12-11T12:16:51.129Z,13.90
2022-12-11T12:19:38.279Z,14.52
2022-12-11T12:22:25.490Z,13.32
2022-12-11T12:25:38.933Z,13.82
2022-12-11T12:28:33.987Z,13.82
2022-12-11T12:31:06.678Z,13.63
2022-12-11T12:33:44.124Z,12.40
2022-12-11T12:36:26.901Z,14.13
2022-12-11T12:38:56.110Z,13.00
2022-12-11T12:41:41.992Z,17.38
2022-12-11T12:44:25.183Z,13.65
2022-12-11T12:47:01.905Z,13.52
2022-12-11T12:49:50.724Z,13.35
2022-12-11T12:52:32.296Z,13.93
2022-12-11T12:55:14.094Z,13.35
2022-12-11T12:58:01.123Z,12.95
2022-12-11T13:00:35.159Z,13.80
2022-12-11T13:03:14.572Z,12.57
2022-12-11T13:05:43.781Z,13.02
2022-12-11T13:08:18.468Z,12.50
2022-12-11T13:10:45.667Z,13.13
2022-12-11T13:13:35.128Z,13.35
2022-12-11T13:16:14.964Z,13.35
2022-12-11T13:18:45.589Z,12.82
2022-12-11T13:21:31.734Z,13.50
2022-12-11T13:24:19.943Z,15.27
2022-12-11T13:26:47.937Z,13.25
2022-12-11T13:29:35.495Z,11.88
2022-12-11T13:32:17.581Z,13.00
2022-12-11T13:34:47.318Z,12.65
2022-12-11T13:37:22.099Z,10.73
2022-12-11T13:39:49.076Z,11.35
2022-12-11T13:42:36.403Z,11.48
2022-12-11T13:45:06.414Z,12.13
2022-12-11T13:47:36.741Z,12.93
2022-12-11T13:50:19.538Z,13.88
2022-12-11T13:52:56.611Z,14.32
2022-12-11T13:55:25.938Z,14.75
2022-12-11T13:57:53.092Z,13.38
2022-12-11T14:00:25.740Z,12.77
2022-12-11T14:02:53.666Z,13.68
2022-12-11T14:05:21.183Z,12.13
2022-12-11T14:07:50.791Z,12.15
2022-12-11T14:10:25.471Z,14.10
2022-12-11T14:12:55.519Z,13.30
2022-12-11T14:15:22.597Z,12.52
2022-12-11T14:17:51.864Z,14.90
2022-12-11T14:20:24.237Z,12.95
2022-12-11T14:22:51.274Z,15.00
2022-12-11T14:25:27.529Z,10.85
2022-12-11T14:27:55.720Z,12.25
2022-12-11T14:30:28.072Z,12.75
2022-12-11T14:32:57.560Z,13.20
2022-12-11T14:35:38.868Z,15.27
2022-12-11T14:38:22.190Z,13.02
2022-12-11T14:40:51.602Z,12.05
2022-12-11T14:43:23.970Z,12.77
2022-12-11T14:45:51.062Z,13.52
2022-12-11T14:48:20.834Z,13.98
2022-12-11T14:50:50.275Z,14.05
2022-12-11T14:53:26.178Z,15.20
2022-12-11T14:55:53.236Z,14.48
2022-12-11T14:58:28.549Z,16.13
2022-12-11T15:01:06.722Z,14.88
2022-12-11T15:03:38.038Z,15.15
2022-12-11T15:06:31.357Z,15.32
2022-12-11T15:08:58.529Z,13.75
2022-12-11T15:11:30.054Z,15.13
2022-12-11T15:14:01.014Z,15.00
2022-12-11T15:16:28.628Z,16.80
2022-12-11T15:18:55.775Z,16.58
2022-12-11T15:21:30.192Z,15.70
2022-12-11T15:23:58.858Z,18.33
2022-12-11T15:26:35.783Z,17.02
2022-12-11T15:29:04.521Z,16.63
2022-12-11T15:31:33.474Z,15.20
2022-12-11T15:34:00.598Z,15.88
2022-12-11T15:36:32.216Z,16.73
2022-12-11T15:38:59.178Z,15.40
2022-12-11T15:41:26.324Z,16.33
2022-12-11T15:43:58.613Z,17.85
2022-12-11T15:46:26.467Z,16.60
2022-12-11T15:48:53.540Z,18.88
2022-12-11T15:51:20.559Z,17.10
2022-12-11T15:53:47.593Z,19.33
2022-12-11T15:56:17.540Z,17.35
2022-12-11T15:58:45.281Z,19.42
2022-12-11T16:01:12.487Z,17.60
2022-12-11T16:03:39.484Z,19.02
2022-12-11T16:06:06.667Z,19.02
2022-12-11T16:08:33.702Z,19.67
2022-12-11T16:11:00.667Z,19.23
2022-12-11T16:13:27.550Z,17.55
2022-12-11T16:15:54.602Z,18.17
2022-12-11T16:18:22.788Z,16.98
2022-12-11T16:20:50.373Z,15.25
2022-12-11T16:23:17.567Z,17.20
2022-12-11T16:25:45.144Z,16.20
2022-12-11T16:28:13.084Z,15.57
2022-12-11T16:30:40.157Z,15.45
2022-12-11T16:33:12.132Z,15.50
2022-12-11T16:35:39.998Z,16.10
2022-12-11T16:38:07.895Z,17.45
2022-12-11T16:40:35.026Z,18.20
2022-12-11T16:43:11.344Z,18.83
2022-12-11T16:45:38.650Z,19.73
2022-12-11T16:48:05.774Z,19.65
2022-12-11T16:50:33.136Z,18.80
2022-12-11T16:53:00.232Z,18.00
2022-12-11T16:55:27.341Z,19.15
2022-12-11T16:57:55.158Z,18.40
2022-12-11T17:00:22.797Z,20.27
2022-12-11T17:02:49.996Z,19.25
2022-12-11T17:05:17.261Z,18.13
2022-12-11T17:07:44.613Z,20.10
2022-12-11T17:10:12.187Z,19.73
2022-12-11T17:12:39.410Z,25.58
2022-12-11T17:15:07.064Z,21.77
2022-12-11T17:17:34.083Z,20.80
2022-12-11T17:20:01.485Z,22.38
2022-12-11T17:22:28.689Z,21.80
2022-12-11T17:24:55.853Z,20.38
2022-12-11T17:27:23.136Z,21.02
2022-12-11T17:29:53.654Z,19.15
2022-12-11T17:32:20.621Z,21.15
2022-12-11T17:34:50.522Z,20.77
2022-12-11T17:37:18.047Z,20.08
2022-12-11T17:39:45.246Z,22.05
2022-12-11T17:42:12.269Z,20.98
2022-12-11T17:44:39.388Z,21.33
2022-12-11T17:47:11.104Z,20.83
2022-12-11T17:49:39.942Z,21.92
2022-12-11T17:52:07.147Z,20.70
2022-12-11T17:54:35.002Z,20.35
2022-12-11T17:57:05.048Z,21.08
2022-12-11T17:59:33.129Z,20.95
2022-12-11T18:02:00.241Z,20.17
2022-12-11T18:04:27.523Z,20.60
2022-12-11T18:06:54.511Z,22.15
2022-12-11T18:09:22.320Z,22.90
2022-12-11T18:11:54.847Z,23.23
2022-12-11T18:14:22.385Z,20.80
2022-12-11T18:16:49.296Z,23.77
2022-12-11T18:19:16.884Z,20.70
2022-12-11T18:21:45.761Z,23.40
2022-12-11T18:24:12.971Z,23.50
2022-12-11T18:26:42.810Z,22.58
2022-12-11T18:29:09.915Z,22.50
2022-12-11T18:31:42.202Z,22.70
2022-12-11T18:34:10.339Z,24.63
2022-12-11T18:36:37.959Z,23.27
2022-12-11T18:39:04.900Z,23.88
2022-12-11T18:41:32.170Z,21.42
2022-12-11T18:44:09.336Z,23.38
2022-12-11T18:46:37.153Z,25.35
2022-12-11T18:49:04.180Z,22.90
2022-12-11T18:51:31.101Z,23.52
2022-12-11T18:53:58.019Z,23.70
2022-12-11T18:56:24.920Z,22.02
2022-12-11T18:58:52.066Z,25.42
2022-12-11T19:01:27.375Z,24.33
2022-12-11T19:04:02.727Z,23.38
2022-12-11T19:06:32.085Z,20.83
2022-12-11T19:08:59.695Z,23.02
2022-12-11T19:11:27.562Z,25.17
2022-12-11T19:13:56.669Z,25.25
2022-12-11T19:16:25.521Z,23.00
2022-12-11T19:18:52.641Z,24.40
2022-12-11T19:21:19.595Z,27.42
2022-12-11T19:23:46.839Z,23.25
2022-12-11T19:26:25.514Z,21.98
2022-12-11T19:28:53.391Z,18.98
2022-12-11T19:31:21.777Z,19.60
2022-12-11T19:33:48.944Z,18.85
2022-12-11T19:36:17.779Z,20.90
2022-12-11T19:38:45.498Z,19.15
2022-12-11T19:41:15.673Z,19.58
2022-12-11T19:43:42.857Z,18.25
2022-12-11T19:46:12.532Z,17.92
2022-12-11T19:48:41.774Z,18.48
2022-12-11T19:51:15.530Z,16.60
2022-12-11T19:53:45.144Z,15.48
2022-12-11T19:56:12.494Z,16.02
2022-12-11T19:58:41.084Z,13.90
2022-12-11T20:01:08.194Z,15.18
2022-12-11T20:03:38.695Z,15.00
2022-12-11T20:06:10.458Z,13.68
2022-12-11T20:08:46.034Z,14.45
2022-12-11T20:11:18.763Z,14.30
2022-12-11T20:13:50.343Z,15.20
2022-12-11T20:16:20.022Z,14.77
2022-12-11T20:18:55.978Z,14.75
2022-12-11T20:21:23.086Z,13.80
2022-12-11T20:23:50.381Z,13.02
2022-12-11T20:26:19.965Z,13.20
2022-12-11T20:28:53.838Z,13.98
2022-12-11T20:31:24.723Z,12.98
2022-12-11T20:33:53.679Z,12.35
2022-12-11T20:36:21.595Z,12.57
2022-12-11T20:38:48.856Z,12.65
2022-12-11T20:41:20.613Z,11.95
2022-12-11T20:43:49.099Z,12.80
2022-12-11T20:46:16.911Z,12.55
2022-12-11T20:48:44.937Z,12.45
2022-12-11T20:51:12.974Z,12.70
2022-12-11T20:53:41.609Z,11.00
2022-12-11T20:56:10.909Z,13.05
2022-12-11T20:58:38.549Z,11.98
2022-12-11T21:01:05.858Z,10.73
2022-12-11T21:03:37.545Z,11.88
2022-12-11T21:06:07.682Z,11.05
2022-12-11T21:08:34.617Z,11.40
2022-12-11T21:11:01.566Z,11.18
2022-12-11T21:13:28.561Z,11.85
2022-12-11T21:15:56.769Z,11.73
2022-12-11T21:18:24.048Z,11.52
2022-12-11T21:20:56.823Z,11.10
2022-12-11T21:23:25.071Z,11.18
2022-12-11T21:25:52.612Z,10.80
2022-12-11T21:28:19.762Z,10.98
2022-12-11T21:30:46.826Z,11.35
2022-12-11T21:33:16.274Z,13.57
2022-12-11T21:35:43.669Z,11.57
2022-12-11T21:38:10.585Z,10.38
2022-12-11T21:40:37.733Z,10.63
2022-12-11T21:43:04.797Z,11.07
2022-12-11T21:48:23.314Z,11.30
2022-12-11T21:50:51.575Z,10.23
2022-12-11T21:53:18.597Z,9.73
2022-12-11T21:55:45.694Z,10.82
2022-12-11T21:58:12.945Z,11.00
2022-12-11T22:00:40.039Z,11.93
2022-12-11T22:03:07.815Z,10.10
2022-12-11T22:05:35.015Z,10.32
2022-12-11T22:08:02.505Z,10.57
2022-12-11T22:10:29.682Z,10.48
2022-12-11T22:12:56.953Z,10.38
2022-12-11T22:15:24.640Z,10.10
2022-12-11T22:17:52.368Z,8.82
2022-12-11T22:20:19.542Z,9.48
2022-12-11T22:22:47.151Z,8.85
2022-12-11T22:25:17.226Z,9.50
2022-12-11T22:27:45.022Z,9.93
2022-12-11T22:30:13.263Z,9.98
2022-12-11T22:32:41.996Z,8.68
2022-12-11T22:35:11.557Z,9.05
2022-12-11T22:37:40.950Z,8.40
2022-12-11T22:40:09.286Z,8.43
2022-12-11T22:42:39.550Z,8.00
2022-12-11T22:45:08.451Z,7.72
2022-12-11T22:47:36.205Z,6.90
2022-12-11T22:50:04.506Z,6.50
2022-12-11T22:52:32.134Z,6.57
2022-12-11T22:55:00.673Z,6.95
2022-12-11T22:57:31.059Z,6.55
2022-12-11T23:00:01.250Z,7.07
2022-12-11T23:02:32.057Z,7.60
2022-12-11T23:04:59.332Z,6.18
2022-12-11T23:07:26.681Z,5.70
2022-12-11T23:09:53.693Z,5.30
2022-12-11T23:12:20.867Z,5.60
2022-12-11T23:14:49.338Z,5.57
2022-12-11T23:17:16.380Z,6.22
2022-12-11T23:19:43.875Z,4.63
2022-12-11T23:22:10.948Z,4.28
2022-12-11T23:24:38.765Z,4.60
2022-12-11T23:27:05.937Z,4.05
2022-12-11T23:29:32.959Z,4.22
2022-12-11T23:32:00.001Z,4.03
2022-12-11T23:34:27.120Z,3.97
2022-12-11T23:36:54.142Z,4.03
2022-12-11T23:39:21.124Z,3.47
2022-12-11T23:41:48.069Z,3.55
2022-12-11T23:44:16.057Z,3.17
2022-12-11T23:46:44.899Z,3.40
2022-12-11T23:49:12.150Z,3.28
2022-12-11T23:51:43.225Z,3.22
2022-12-11T23:54:10.364Z,2.97
2022-12-11T23:56:37.293Z,3.78
2022-12-11T23:59:04.179Z,4.35
